Time;durP1;ratioP1;P1;durP2;ratioP2;P2;SDS_P1;SDS_P2;PMS_P1;PMS_P2;Temp;Humidity;BMP_temperature;BMP_pressure;BME280_temperature;BME280_humidity;BME280_pressure;Samples;Min_cycle;Max_cycle;Signal;HPM_P1;HPM_P2
2021/06/27 00:00:18;;;;;;;4.95;3.92;;;;;;;20.85;79.43;99066.33;1660303;86;21150;-71
2021/06/27 00:02:45;;;;;;;8.33;6.50;;;;;;;20.79;79.39;99066.84;1660131;86;21624;-69
2021/06/27 00:05:14;;;;;;;8.70;5.30;;;;;;;20.70;79.50;99076.47;1660073;86;21629;-73
2021/06/27 00:07:41;;;;;;;7.67;5.42;;;;;;;20.75;78.52;99087.21;1633287;87;21142;-69
2021/06/27 00:10:13;;;;;;;4.35;3.95;;;;;;;20.79;78.51;99095.55;1633057;87;21134;-68
2021/06/27 00:12:40;;;;;;;4.92;4.35;;;;;;;20.83;78.40;99105.48;1659392;86;21904;-71
2021/06/27 00:15:17;;;;;;;8.73;6.05;;;;;;;20.90;78.25;99121.37;1659801;85;20979;-70
2021/06/27 00:17:44;;;;;;;6.10;5.40;;;;;;;20.96;77.90;99154.79;1660315;85;21027;-70
2021/06/27 00:20:15;;;;;;;5.12;4.62;;;;;;;21.02;77.75;99158.34;1659983;86;20924;-69
2021/06/27 00:22:44;;;;;;;6.12;5.53;;;;;;;21.09;77.47;99141.42;1660219;86;20976;-70
2021/06/27 00:25:12;;;;;;;6.05;5.17;;;;;;;21.14;77.08;99147.53;1659962;86;21049;-69
2021/06/27 00:27:40;;;;;;;11.83;5.08;;;;;;;21.14;77.04;99161.20;1660174;86;21074;-69
2021/06/27 00:30:09;;;;;;;5.10;4.62;;;;;;;21.14;77.12;99168.61;1660096;86;21020;-69
2021/06/27 00:32:36;;;;;;;6.00;4.22;;;;;;;21.18;76.74;99172.27;1660255;86;21067;-70
2021/06/27 00:35:06;;;;;;;5.15;4.67;;;;;;;21.19;76.58;99177.98;1660120;86;21572;-69
2021/06/27 00:37:33;;;;;;;5.65;4.47;;;;;;;21.16;76.53;99170.42;1660330;85;21114;-70
2021/06/27 00:40:00;;;;;;;6.87;4.92;;;;;;;21.16;76.54;99167.12;1660705;86;20988;-72
2021/06/27 00:42:26;;;;;;;5.60;4.47;;;;;;;21.12;76.70;99163.99;1660908;86;22467;-70
2021/06/27 00:44:54;;;;;;;7.83;4.67;;;;;;;21.15;76.69;99170.21;1660540;86;20904;-70
2021/06/27 00:47:30;;;;;;;13.08;4.67;;;;;;;21.21;76.57;99168.30;1660138;86;20979;-72
2021/06/27 00:49:59;;;;;;;4.40;4.00;;;;;;;21.25;76.20;99173.33;1656658;86;21034;-72
2021/06/27 00:52:26;;;;;;;6.87;4.72;;;;;;;21.26;76.08;99168.67;1662967;86;21017;-72
2021/06/27 00:54:53;;;;;;;8.23;4.47;;;;;;;21.28;75.70;99178.16;1609148;89;21086;-72
2021/06/27 00:57:22;;;;;;;3.65;3.22;;;;;;;21.30;75.41;99173.14;1666687;86;21142;-72
2021/06/27 00:59:49;;;;;;;6.37;4.00;;;;;;;21.33;75.16;99162.11;1662260;85;21485;-73
2021/06/27 01:02:16;;;;;;;9.18;4.87;;;;;;;21.37;75.06;99159.50;1673114;85;21846;-70
2021/06/27 01:04:43;;;;;;;4.12;3.72;;;;;;;21.42;74.81;99156.56;1666714;86;21040;-72
2021/06/27 01:07:09;;;;;;;4.65;4.05;;;;;;;21.46;74.43;99155.56;1666701;86;21001;-72
2021/06/27 01:09:36;;;;;;;12.00;4.10;;;;;;;21.41;74.09;99158.50;1667037;86;20978;-73
2021/06/27 01:12:05;;;;;;;8.30;4.40;;;;;;;21.28;74.87;99163.67;1666908;86;21035;-71
2021/06/27 01:14:33;;;;;;;5.95;3.60;;;;;;;21.10;75.46;99168.41;1636330;87;21562;-71
2021/06/27 01:17:00;;;;;;;5.25;3.85;;;;;;;21.01;76.13;99168.23;1666910;86;20990;-72
2021/06/27 01:19:32;;;;;;;7.40;4.08;;;;;;;20.90;76.54;99166.48;1636410;87;21580;-72
2021/06/27 01:21:59;;;;;;;6.25;4.58;;;;;;;20.86;76.91;99178.61;1667035;86;20975;-71
2021/06/27 01:24:29;;;;;;;10.28;4.53;;;;;;;20.84;77.06;99169.95;1630736;87;21104;-71
2021/06/27 01:26:55;;;;;;;6.03;5.22;;;;;;;20.80;77.16;99170.95;1638076;87;21870;-72
2021/06/27 01:29:23;;;;;;;6.33;5.15;;;;;;;20.80;77.34;99168.22;1623764;88;21064;-71
2021/06/27 01:31:50;;;;;;;5.25;4.12;;;;;;;20.79;77.60;99172.88;1638056;87;21554;-72
2021/06/27 01:34:16;;;;;;;7.17;4.60;;;;;;;20.76;77.21;99173.55;1638013;87;21039;-71
2021/06/27 01:36:43;;;;;;;7.37;4.78;;;;;;;20.73;77.39;99169.28;1626066;88;21131;-71
2021/06/27 01:39:10;;;;;;;5.37;3.87;;;;;;;20.66;77.74;99162.19;1666720;86;21142;-71
2021/06/27 01:41:36;;;;;;;10.35;4.87;;;;;;;20.65;77.82;99170.94;1666697;85;20948;-74
2021/06/27 01:44:04;;;;;;;5.65;5.12;;;;;;;20.58;78.71;99167.91;1632101;87;21078;-72
2021/06/27 01:46:31;;;;;;;6.25;5.20;;;;;;;20.58;78.71;99167.91;1637676;87;21015;-73
2021/06/27 01:48:58;;;;;;;5.85;5.25;;;;;;;20.52;79.23;99165.70;1620244;88;21548;-74
2021/06/27 01:51:26;;;;;;;5.35;4.87;;;;;;;20.47;79.29;99177.62;1610183;89;21190;-71
2021/06/27 01:53:53;;;;;;;8.63;5.33;;;;;;;20.39;79.72;99178.43;1610216;89;21124;-73
2021/06/27 01:56:19;;;;;;;5.00;4.60;;;;;;;20.30;80.30;99178.99;1610147;89;21022;-73
2021/06/27 01:58:51;;;;;;;7.50;5.72;;;;;;;20.24;80.83;99185.19;1609868;89;21078;-73
2021/06/27 02:01:29;;;;;;;6.95;5.92;;;;;;;20.24;80.83;99185.19;1610653;88;21593;-74
2021/06/27 02:03:56;;;;;;;5.80;5.25;;;;;;;20.18;81.38;99177.52;1610098;89;21105;-75
2021/06/27 02:06:25;;;;;;;6.25;5.03;;;;;;;20.11;81.69;99182.10;1610824;89;21359;-73
2021/06/27 02:08:54;;;;;;;6.30;5.05;;;;;;;20.08;81.99;99176.50;1602665;89;21033;-74
2021/06/27 02:11:22;;;;;;;6.33;4.60;;;;;;;20.06;82.04;99179.55;1610955;89;21088;-74
2021/06/27 02:13:49;;;;;;;4.87;4.35;;;;;;;20.07;82.05;99189.34;1652153;86;21548;-71
2021/06/27 02:16:16;;;;;;;5.25;4.78;;;;;;;20.10;81.88;99192.78;1652191;86;21532;-71
2021/06/27 02:18:49;;;;;;;5.15;4.58;;;;;;;20.07;82.40;99198.90;1621193;87;22441;-72
2021/06/27 02:21:35;;;;;;;6.83;4.83;;;;;;;20.05;82.51;99192.95;1610434;89;21116;-71
2021/06/27 02:24:05;;;;;;;4.60;3.72;;;;;;;20.09;82.32;99198.03;1610108;88;21019;-71
2021/06/27 02:26:32;;;;;;;8.00;4.33;;;;;;;20.14;81.83;99203.31;1610349;88;21035;-72
2021/06/27 02:28:59;;;;;;;14.87;4.75;;;;;;;20.11;82.17;99199.84;1610190;89;21151;-73
2021/06/27 02:31:27;;;;;;;7.15;4.97;;;;;;;20.12;82.24;99206.92;1611074;89;21038;-72
2021/06/27 02:33:54;;;;;;;6.00;4.30;;;;;;;20.14;82.21;99210.14;1652035;86;21151;-72
2021/06/27 02:36:21;;;;;;;7.85;5.00;;;;;;;20.17;82.14;99212.77;1652116;86;21120;-72
2021/06/27 02:38:49;;;;;;;8.90;4.50;;;;;;;20.15;82.40;99213.09;1652436;86;21063;-73
2021/06/27 02:41:16;;;;;;;6.70;4.33;;;;;;;20.13;82.46;99215.36;1651942;86;21140;-75
2021/06/27 02:43:43;;;;;;;4.78;4.25;;;;;;;20.13;82.33;99207.73;1623172;87;20986;-73
2021/06/27 02:46:11;;;;;;;8.93;5.90;;;;;;;20.18;82.17;99209.73;1652222;86;21077;-73
2021/06/27 02:48:39;;;;;;;9.78;5.50;;;;;;;20.22;81.99;99199.75;1654576;85;21056;-73
2021/06/27 02:51:06;;;;;;;5.83;4.58;;;;;;;20.25;81.84;99198.29;1681061;85;21063;-73
2021/06/27 02:53:33;;;;;;;4.72;4.33;;;;;;;20.24;81.77;99192.02;1682263;85;21553;-72
2021/06/27 02:56:09;;;;;;;7.08;4.45;;;;;;;20.26;81.55;99193.87;1667732;85;21116;-73
2021/06/27 02:58:46;;;;;;;5.62;5.12;;;;;;;20.23;81.79;99201.36;1666514;85;21043;-75
2021/06/27 03:01:16;;;;;;;8.70;4.03;;;;;;;20.23;81.83;99207.39;1680620;85;21021;-71
2021/06/27 03:03:44;;;;;;;4.62;4.17;;;;;;;20.24;81.68;99220.70;1647479;87;21047;-72
2021/06/27 03:06:11;;;;;;;7.03;4.37;;;;;;;20.28;81.43;99228.50;1673072;85;21738;-72
2021/06/27 03:08:40;;;;;;;7.67;3.67;;;;;;;20.32;81.18;99228.67;1666410;85;21107;-72
2021/06/27 03:11:07;;;;;;;5.20;4.70;;;;;;;20.36;80.88;99230.99;1647869;87;21059;-74
2021/06/27 03:13:39;;;;;;;4.17;3.77;;;;;;;20.38;80.80;99228.75;1679529;85;21088;-73
2021/06/27 03:16:07;;;;;;;5.20;4.63;;;;;;;20.45;80.23;99223.02;1666773;86;21075;-70
2021/06/27 03:18:35;;;;;;;5.05;4.65;;;;;;;20.54;79.90;99223.53;1666331;86;21981;-72
2021/06/27 03:21:01;;;;;;;5.15;4.35;;;;;;;20.53;80.02;99221.95;1666767;85;21088;-71
2021/06/27 03:23:30;;;;;;;7.08;5.12;;;;;;;20.52;79.93;99227.98;1676705;85;21525;-73
2021/06/27 03:25:58;;;;;;;4.87;4.12;;;;;;;20.51;79.64;99224.20;1680971;85;20988;-72
2021/06/27 03:28:31;;;;;;;7.45;4.42;;;;;;;20.55;79.43;99221.86;1680797;85;21525;-72
2021/06/27 03:30:55;;;;;;;4.97;4.17;;;;;;;20.57;79.44;99232.47;1680213;85;21166;-71
2021/06/27 03:33:21;;;;;;;5.65;5.15;;;;;;;20.55;79.55;99238.81;1680636;85;20988;-71
2021/06/27 03:35:48;;;;;;;5.33;4.83;;;;;;;20.54;79.69;99231.73;1666928;85;21123;-71
2021/06/27 03:40:44;;;;;;;7.08;4.95;;;;;;;20.71;79.31;99224.30;1677756;85;21009;-72
2021/06/27 03:43:11;;;;;;;9.25;6.17;;;;;;;20.72;78.89;99221.77;1644293;87;21818;-73
2021/06/27 03:45:38;;;;;;;11.88;5.15;;;;;;;20.67;79.31;99219.81;1680862;84;21004;-72
2021/06/27 03:48:07;;;;;;;7.65;6.50;;;;;;;20.66;79.42;99217.64;1678034;85;21016;-72
2021/06/27 03:50:34;;;;;;;5.92;5.33;;;;;;;20.72;78.84;99223.73;1669074;84;21517;-72
2021/06/27 03:53:01;;;;;;;8.48;5.55;;;;;;;20.73;79.24;99222.02;1668793;86;21032;-72
2021/06/27 03:55:29;;;;;;;13.53;5.37;;;;;;;20.70;79.49;99218.59;1679209;85;21204;-71
2021/06/27 03:57:56;;;;;;;6.25;5.37;;;;;;;20.68;79.78;99210.46;1669865;85;21007;-72
2021/06/27 04:00:23;;;;;;;9.70;5.80;;;;;;;20.73;79.07;99207.55;1669108;85;20913;-72
2021/06/27 04:02:50;;;;;;;5.50;5.00;;;;;;;20.70;79.47;99207.66;1668615;86;21095;-71
2021/06/27 04:05:17;;;;;;;9.50;6.67;;;;;;;20.66;79.53;99196.34;1670705;85;20960;-71
2021/06/27 04:07:43;;;;;;;8.20;5.12;;;;;;;20.67;79.80;99193.27;1680775;85;21111;-71
2021/06/27 04:10:12;;;;;;;7.65;5.53;;;;;;;20.62;80.17;99185.84;1683057;85;21003;-72
2021/06/27 04:12:38;;;;;;;6.42;5.78;;;;;;;20.66;80.46;99184.84;1683391;85;20976;-72
2021/06/27 04:15:08;;;;;;;6.60;5.40;;;;;;;20.73;80.46;99182.95;1647260;87;21058;-71
2021/06/27 04:17:36;;;;;;;6.22;5.72;;;;;;;20.84;79.54;99176.80;1672180;85;20968;-76
2021/06/27 04:20:06;;;;;;;8.08;6.33;;;;;;;20.97;79.04;99178.23;1668179;86;21136;-71
2021/06/27 04:22:33;;;;;;;8.08;5.78;;;;;;;21.06;78.64;99181.72;1666427;85;21016;-72
2021/06/27 04:25:01;;;;;;;9.75;6.37;;;;;;;21.14;78.11;99175.44;1676636;85;21641;-71
2021/06/27 04:27:30;;;;;;;6.75;6.15;;;;;;;21.24;77.92;99181.33;1638098;87;21536;-80
2021/06/27 04:29:57;;;;;;;7.30;5.37;;;;;;;21.34;77.19;99183.44;1674202;85;21091;-70
2021/06/27 04:32:25;;;;;;;6.72;5.12;;;;;;;21.44;75.92;99179.70;1647638;87;21171;-72
2021/06/27 04:34:53;;;;;;;5.75;5.25;;;;;;;21.53;75.85;99176.36;1677332;85;20909;-71
2021/06/27 04:37:20;;;;;;;5.58;5.08;;;;;;;21.60;75.78;99188.92;1640778;86;21103;-72
2021/06/27 04:39:47;;;;;;;4.58;4.25;;;;;;;21.71;75.36;99195.60;1668762;86;20961;-73
2021/06/27 04:42:14;;;;;;;6.55;4.90;;;;;;;21.77;74.42;99202.24;1675048;85;21063;-72
2021/06/27 04:44:42;;;;;;;8.70;5.78;;;;;;;21.79;74.32;99195.28;1675511;85;23138;-72
2021/06/27 04:47:09;;;;;;;6.92;4.87;;;;;;;21.87;73.62;99203.97;1674796;85;21152;-72
2021/06/27 04:49:39;;;;;;;4.95;4.33;;;;;;;21.99;73.45;99205.44;1674854;84;21571;-72
2021/06/27 04:52:09;;;;;;;7.83;6.90;;;;;;;22.10;73.28;99218.15;1690711;84;21123;-71
2021/06/27 04:54:37;;;;;;;15.35;6.87;;;;;;;22.22;73.17;99229.13;1689541;84;21119;-72
2021/06/27 04:57:05;;;;;;;9.00;6.50;;;;;;;22.30;72.79;99243.30;1680716;84;21145;-72
2021/06/27 04:59:32;;;;;;;6.45;5.85;;;;;;;22.41;71.95;99251.33;1670298;86;21500;-72
2021/06/27 05:01:59;;;;;;;8.25;7.45;;;;;;;22.52;70.96;99245.66;1670484;86;21621;-76
2021/06/27 05:04:26;;;;;;;16.05;6.62;;;;;;;22.63;70.68;99246.59;1671068;84;21012;-73
2021/06/27 05:06:52;;;;;;;16.82;6.90;;;;;;;22.69;70.58;99256.17;1667178;85;21075;-71
2021/06/27 05:09:19;;;;;;;21.23;7.22;;;;;;;22.71;70.57;99254.74;1672107;85;21208;-74
2021/06/27 05:11:47;;;;;;;16.67;6.72;;;;;;;22.71;70.93;99258.05;1648696;86;21052;-72
2021/06/27 05:14:14;;;;;;;16.00;6.70;;;;;;;22.66;71.22;99263.16;1636746;87;21055;-71
2021/06/27 05:16:40;;;;;;;7.20;6.50;;;;;;;22.64;71.79;99268.77;1642229;87;21051;-73
2021/06/27 05:19:09;;;;;;;6.92;6.22;;;;;;;22.63;72.49;99269.89;1635099;87;21059;-73
2021/06/27 05:21:36;;;;;;;7.78;5.97;;;;;;;22.66;72.41;99280.97;1634071;87;21151;-72
2021/06/27 05:24:05;;;;;;;10.48;5.25;;;;;;;22.64;72.58;99286.58;1634918;87;21035;-72
2021/06/27 05:26:32;;;;;;;7.72;6.40;;;;;;;22.67;72.46;99295.48;1642628;86;21020;-74
2021/06/27 05:28:59;;;;;;;8.78;6.85;;;;;;;22.67;73.01;99285.33;1635643;87;21044;-71
2021/06/27 05:31:26;;;;;;;8.55;6.60;;;;;;;22.68;72.70;99285.56;1647757;87;21098;-72
2021/06/27 05:33:53;;;;;;;8.28;5.60;;;;;;;22.68;72.65;99296.53;1647649;87;21562;-73
2021/06/27 05:36:21;;;;;;;10.63;5.20;;;;;;;22.63;72.60;99290.45;1642499;87;21004;-71
2021/06/27 05:38:48;;;;;;;7.05;5.92;;;;;;;22.59;72.63;99295.80;1634561;87;21060;-70
2021/06/27 05:41:15;;;;;;;7.62;4.55;;;;;;;22.59;72.76;99290.31;1648637;87;21053;-71
2021/06/27 05:43:43;;;;;;;12.93;6.03;;;;;;;22.66;72.87;99291.94;1647680;87;20998;-72
2021/06/27 05:46:09;;;;;;;16.00;6.30;;;;;;;22.74;72.74;99295.75;1638256;87;21542;-71
2021/06/27 05:48:37;;;;;;;10.23;6.65;;;;;;;22.82;72.43;99286.08;1647724;86;21034;-71
2021/06/27 05:51:04;;;;;;;7.37;5.78;;;;;;;22.91;72.29;99290.08;1635272;86;21109;-70
2021/06/27 05:53:31;;;;;;;16.27;12.90;;;;;;;23.03;72.09;99274.98;1682649;85;21581;-70
2021/06/27 05:56:10;;;;;;;12.20;8.20;;;;;;;23.11;71.73;99269.17;1671469;85;21073;-71
2021/06/27 05:58:41;;;;;;;6.62;5.65;;;;;;;23.23;71.52;99276.02;1683158;85;21024;-71
2021/06/27 06:01:11;;;;;;;5.50;4.83;;;;;;;23.36;71.01;99263.31;1637041;87;21067;-71
2021/06/27 06:03:39;;;;;;;5.85;4.15;;;;;;;23.49;69.88;99263.34;1647849;85;21114;-69
2021/06/27 06:06:06;;;;;;;6.10;4.87;;;;;;;23.64;69.19;99262.63;1675685;85;21391;-71
2021/06/27 06:08:34;;;;;;;7.92;4.37;;;;;;;23.77;68.43;99264.20;1683084;85;21005;-72
2021/06/27 06:11:03;;;;;;;6.55;5.53;;;;;;;23.93;67.71;99263.70;1683104;85;21742;-71
2021/06/27 06:13:30;;;;;;;6.05;4.37;;;;;;;23.99;67.11;99260.91;1682870;85;20952;-71
2021/06/27 06:15:58;;;;;;;5.03;4.42;;;;;;;24.08;66.69;99260.18;1678320;85;21007;-71
2021/06/27 06:18:27;;;;;;;4.72;4.08;;;;;;;24.21;65.88;99267.28;1668588;86;20971;-71
2021/06/27 06:20:54;;;;;;;4.53;3.83;;;;;;;24.37;64.98;99268.66;1668635;86;21126;-70
2021/06/27 06:23:21;;;;;;;7.17;4.80;;;;;;;24.47;64.73;99272.86;1669063;86;21124;-72
2021/06/27 06:25:48;;;;;;;6.85;4.92;;;;;;;24.53;63.53;99270.08;1674335;85;21046;-70
2021/06/27 06:28:15;;;;;;;4.85;4.45;;;;;;;24.51;64.00;99264.15;1668963;86;21010;-70
2021/06/27 06:30:41;;;;;;;7.30;4.40;;;;;;;24.61;64.16;99264.41;1668746;86;21027;-70
2021/06/27 06:33:11;;;;;;;8.93;4.70;;;;;;;24.75;63.82;99259.27;1676845;85;21259;-73
2021/06/27 06:35:42;;;;;;;6.90;4.28;;;;;;;24.90;62.98;99255.53;1665089;85;21491;-73
2021/06/27 06:38:09;;;;;;;6.17;4.25;;;;;;;24.99;62.39;99242.38;1662358;86;21037;-72
2021/06/27 06:40:37;;;;;;;4.80;4.17;;;;;;;25.08;62.14;99239.67;1662529;85;21542;-73
2021/06/27 06:43:04;;;;;;;5.85;4.20;;;;;;;25.17;62.19;99234.80;1668490;85;21504;-74
2021/06/27 06:45:32;;;;;;;9.50;4.42;;;;;;;25.30;61.20;99234.67;1680571;85;21573;-74
2021/06/27 06:47:59;;;;;;;6.28;4.65;;;;;;;25.28;60.78;99236.40;1682667;85;21149;-72
2021/06/27 06:50:28;;;;;;;6.40;5.28;;;;;;;25.27;61.64;99240.33;1637079;87;21005;-72
2021/06/27 06:52:54;;;;;;;6.60;5.00;;;;;;;25.28;62.03;99237.78;1670119;85;21135;-71
2021/06/27 06:55:23;;;;;;;5.50;4.45;;;;;;;25.27;62.29;99243.09;1668776;86;21031;-73
2021/06/27 06:57:50;;;;;;;7.92;6.58;;;;;;;25.30;62.46;99245.11;1668753;86;21102;-72
2021/06/27 07:00:18;;;;;;;6.50;5.92;;;;;;;25.29;62.35;99240.75;1673235;85;21952;-71
2021/06/27 07:02:45;;;;;;;8.63;5.37;;;;;;;25.29;61.51;99231.13;1673948;85;21253;-74
2021/06/27 07:05:12;;;;;;;10.53;4.83;;;;;;;25.27;61.95;99225.77;1633673;87;21095;-74
2021/06/27 07:07:41;;;;;;;7.00;5.30;;;;;;;25.19;62.26;99216.53;1672893;85;21099;-69
2021/06/27 07:10:09;;;;;;;7.42;5.12;;;;;;;25.16;62.37;99214.51;1680150;85;21091;-74
2021/06/27 07:12:36;;;;;;;4.80;4.30;;;;;;;25.15;62.38;99200.52;1673847;85;21800;-73
2021/06/27 07:15:05;;;;;;;9.48;6.00;;;;;;;25.16;62.38;99193.86;1668729;86;20998;-75
2021/06/27 07:17:32;;;;;;;5.30;4.80;;;;;;;25.21;62.78;99190.03;1668777;86;21011;-74
2021/06/27 07:19:59;;;;;;;12.37;5.37;;;;;;;25.26;63.79;99182.30;1668664;86;21689;-75
2021/06/27 07:22:26;;;;;;;9.93;6.65;;;;;;;25.34;64.21;99179.11;1669783;84;21067;-74
2021/06/27 07:24:54;;;;;;;6.33;5.72;;;;;;;25.33;63.54;99181.06;1664361;84;21152;-77
2021/06/27 07:27:23;;;;;;;7.10;6.40;;;;;;;25.20;63.65;99168.58;1676883;84;21164;-79
2021/06/27 07:29:50;;;;;;;10.60;7.28;;;;;;;25.15;63.56;99160.61;1665346;84;21017;-75
2021/06/27 07:32:18;;;;;;;7.30;6.08;;;;;;;25.20;63.70;99160.33;1661630;85;21031;-74
2021/06/27 07:34:46;;;;;;;9.25;6.00;;;;;;;25.24;63.58;99162.58;1668711;86;21044;-81
2021/06/27 07:37:16;;;;;;;9.83;5.45;;;;;;;25.27;63.18;99143.98;1691580;84;22201;-78
2021/06/27 07:39:43;;;;;;;6.55;5.95;;;;;;;25.34;62.90;99141.94;1682828;84;21531;-76
2021/06/27 07:42:11;;;;;;;6.78;5.30;;;;;;;25.33;64.04;99127.95;1638912;86;21484;-76
2021/06/27 07:44:37;;;;;;;7.70;6.03;;;;;;;25.31;63.85;99112.39;1668618;86;21023;-74
2021/06/27 07:47:05;;;;;;;8.50;6.33;;;;;;;25.38;64.27;99119.41;1668658;86;21047;-75
2021/06/27 07:49:33;;;;;;;8.70;5.47;;;;;;;25.41;63.92;99117.33;1668653;85;21099;-73
2021/06/27 07:52:02;;;;;;;8.38;5.67;;;;;;;25.41;62.00;99122.83;1674678;85;21015;-76
2021/06/27 07:54:29;;;;;;;8.15;5.78;;;;;;;25.32;61.34;99120.30;1672047;85;21004;-74
2021/06/27 07:56:56;;;;;;;15.38;6.15;;;;;;;25.27;63.03;99104.06;1645460;86;21108;-74
2021/06/27 07:59:24;;;;;;;9.15;5.70;;;;;;;25.34;63.25;99093.19;1639426;86;20987;-74
2021/06/27 08:01:51;;;;;;;7.33;5.37;;;;;;;25.43;61.91;99096.52;1665809;84;21136;-76
2021/06/27 08:04:18;;;;;;;7.22;5.37;;;;;;;25.43;61.19;99103.39;1667627;85;21003;-74
2021/06/27 08:06:45;;;;;;;6.20;5.28;;;;;;;25.42;61.04;99096.28;1667364;85;21063;-73
2021/06/27 08:09:13;;;;;;;7.70;4.67;;;;;;;25.39;61.08;99113.55;1648098;86;21116;-72
2021/06/27 08:11:40;;;;;;;7.03;4.25;;;;;;;25.29;60.37;99103.11;1651147;86;21102;-76
2021/06/27 08:14:09;;;;;;;6.60;4.08;;;;;;;25.32;59.84;99109.86;1680916;85;21135;-75
2021/06/27 08:16:37;;;;;;;5.67;5.00;;;;;;;25.35;59.96;99100.29;1668541;86;21015;-72
2021/06/27 08:19:06;;;;;;;4.75;4.15;;;;;;;25.29;60.87;99098.98;1668592;86;21118;-75
2021/06/27 08:21:32;;;;;;;5.80;4.22;;;;;;;25.31;60.87;99114.56;1677273;85;21071;-72
2021/06/27 08:23:59;;;;;;;6.95;4.78;;;;;;;25.39;60.49;99112.74;1647509;87;21621;-76
2021/06/27 08:26:27;;;;;;;7.90;4.78;;;;;;;25.48;60.84;99103.68;1680581;85;21178;-72
2021/06/27 08:28:54;;;;;;;6.83;5.30;;;;;;;25.61;61.99;99109.31;1653713;86;21049;-70
2021/06/27 08:31:23;;;;;;;9.55;6.33;;;;;;;25.72;63.24;99090.20;1657485;86;20985;-84
2021/06/27 08:33:50;;;;;;;10.23;7.53;;;;;;;25.80;63.61;99102.98;1667584;85;21070;-73
2021/06/27 08:36:19;;;;;;;10.82;7.70;;;;;;;25.76;64.25;99112.53;1666454;86;21089;-78
2021/06/27 08:38:46;;;;;;;9.65;5.97;;;;;;;25.76;64.33;99117.23;1666605;84;21159;-72
2021/06/27 08:41:16;;;;;;;12.37;6.30;;;;;;;25.76;64.00;99124.13;1673106;84;21107;-73
2021/06/27 08:43:44;;;;;;;10.58;6.83;;;;;;;25.69;63.95;99145.47;1664724;85;21141;-77
2021/06/27 08:46:13;;;;;;;6.15;5.65;;;;;;;25.68;63.35;99136.17;1631170;88;21001;-74
2021/06/27 08:48:39;;;;;;;7.70;6.22;;;;;;;25.70;63.46;99147.06;1631287;88;21080;-76
2021/06/27 08:51:07;;;;;;;10.53;6.92;;;;;;;25.71;62.83;99129.35;1631088;87;21738;-76
2021/06/27 08:53:35;;;;;;;9.98;6.87;;;;;;;25.67;63.68;99145.59;1604776;88;21104;-74
2021/06/27 08:56:06;;;;;;;8.55;7.20;;;;;;;25.69;63.95;99147.42;1622587;88;20942;-71
2021/06/27 08:58:43;;;;;;;11.45;7.50;;;;;;;25.67;63.68;99145.59;1651905;86;21507;-72
2021/06/27 09:01:17;;;;;;;7.53;6.80;;;;;;;25.67;63.96;99158.80;1624249;87;21538;-77
2021/06/27 09:03:45;;;;;;;7.65;6.12;;;;;;;25.74;62.69;99154.81;1652084;86;21101;-75
2021/06/27 09:06:30;;;;;;;8.75;6.42;;;;;;;25.76;62.64;99151.67;1644025;86;21420;-76
2021/06/27 09:09:17;;;;;;;9.08;5.70;;;;;;;25.96;61.94;99153.25;1640639;86;21144;-74
2021/06/27 09:12:01;;;;;;;7.60;6.83;;;;;;;26.04;60.84;99157.15;1652127;86;21031;-72
2021/06/27 09:14:38;;;;;;;6.72;6.12;;;;;;;26.06;61.35;99169.20;1652654;86;21007;-78
2021/06/27 09:17:17;;;;;;;6.95;5.42;;;;;;;26.08;58.40;99157.81;1652170;86;21156;-76
2021/06/27 09:19:57;;;;;;;9.20;5.95;;;;;;;26.22;58.85;99167.75;1652156;86;21079;-74
2021/06/27 09:22:37;;;;;;;6.60;4.90;;;;;;;26.36;59.64;99166.05;1654054;86;21509;-78
2021/06/27 09:25:25;;;;;;;6.75;4.33;;;;;;;26.46;56.66;99176.47;1653491;86;21080;-74
2021/06/27 09:28:08;;;;;;;11.48;5.87;;;;;;;26.41;55.09;99167.70;1651354;86;21641;-75
2021/06/27 09:30:40;;;;;;;7.20;6.45;;;;;;;26.35;57.17;99163.64;1651878;86;21108;-71
2021/06/27 09:33:16;;;;;;;9.58;5.85;;;;;;;26.29;58.20;99160.97;1644665;87;21501;-72
2021/06/27 09:35:56;;;;;;;7.30;5.62;;;;;;;26.36;58.14;99159.73;1649274;86;32499;-73
2021/06/27 09:38:35;;;;;;;6.30;5.35;;;;;;;26.34;58.16;99164.23;1651825;86;21488;-72
2021/06/27 09:41:20;;;;;;;8.53;6.97;;;;;;;26.43;57.58;99159.84;1662051;85;21060;-71
2021/06/27 09:43:54;;;;;;;7.45;6.72;;;;;;;26.55;57.19;99172.66;1647839;86;21165;-72
2021/06/27 09:46:35;;;;;;;6.42;5.65;;;;;;;26.57;56.85;99163.44;1652126;86;21028;-73
2021/06/27 09:49:14;;;;;;;7.65;5.33;;;;;;;26.66;56.30;99173.06;1654041;85;21089;-72
2021/06/27 09:51:50;;;;;;;5.83;5.15;;;;;;;26.78;55.82;99175.61;1663436;84;21609;-73
2021/06/27 09:54:19;;;;;;;8.20;5.55;;;;;;;26.87;55.17;99178.13;1678422;85;21502;-73
2021/06/27 09:56:46;;;;;;;6.50;5.87;;;;;;;26.95;56.06;99172.95;1644155;86;21109;-73
2021/06/27 09:59:17;;;;;;;9.48;6.75;;;;;;;27.03;56.37;99170.50;1680588;85;20949;-74
2021/06/27 10:01:44;;;;;;;10.72;6.90;;;;;;;27.13;56.70;99182.88;1669517;85;21080;-78
2021/06/27 10:04:15;;;;;;;6.33;5.72;;;;;;;27.21;56.71;99174.31;1636711;87;21575;-76
2021/06/27 10:06:51;;;;;;;6.83;6.25;;;;;;;27.27;56.86;99170.06;1674795;84;21323;-77
2021/06/27 10:09:23;;;;;;;6.42;5.85;;;;;;;27.30;56.42;99175.41;1661155;85;21127;-83
2021/06/27 10:12:19;;;;;;;9.75;6.90;;;;;;;27.35;56.47;99177.84;1673051;85;21008;-79
2021/06/27 10:14:55;;;;;;;7.65;6.12;;;;;;;27.48;55.66;99173.67;1604185;89;21001;-78
2021/06/27 10:17:26;;;;;;;6.47;5.75;;;;;;;27.60;54.90;99181.77;1635324;87;21009;-78
2021/06/27 10:19:55;;;;;;;6.05;5.50;;;;;;;27.76;53.29;99188.48;1635096;87;20990;-78
2021/06/27 10:22:26;;;;;;;6.83;6.22;;;;;;;27.79;52.67;99193.25;1635307;87;21038;-82
2021/06/27 10:24:56;;;;;;;9.20;6.12;;;;;;;27.83;53.15;99187.17;1635112;87;21037;-79
2021/06/27 10:27:28;;;;;;;6.35;5.75;;;;;;;27.87;52.40;99188.00;1639936;85;21046;-80
2021/06/27 10:29:54;;;;;;;5.87;5.25;;;;;;;27.85;51.82;99188.98;1674660;85;20984;-78
2021/06/27 10:32:21;;;;;;;7.53;5.45;;;;;;;27.89;51.91;99190.41;1682652;85;20960;-77
2021/06/27 10:34:48;;;;;;;6.05;5.45;;;;;;;27.85;52.13;99173.78;1670546;85;21165;-79
2021/06/27 10:37:38;;;;;;;6.97;6.28;;;;;;;27.89;51.70;99187.05;1667365;86;21027;-80
2021/06/27 10:40:13;;;;;;;5.72;5.15;;;;;;;27.98;51.75;99180.64;1667299;86;20995;-78
2021/06/27 10:43:00;;;;;;;7.90;5.83;;;;;;;28.03;51.51;99178.92;1680750;85;21056;-79
2021/06/27 10:45:42;;;;;;;6.03;4.55;;;;;;;28.00;51.42;99177.50;1645679;87;21105;-80
2021/06/27 10:48:34;;;;;;;5.70;5.00;;;;;;;28.06;51.59;99181.50;1679846;85;21129;-77
2021/06/27 10:51:13;;;;;;;6.10;5.50;;;;;;;28.16;51.90;99197.44;1675765;85;21088;-79
2021/06/27 10:54:15;;;;;;;6.22;5.60;;;;;;;28.27;51.76;99199.73;1681459;85;21037;-77
2021/06/27 10:57:06;;;;;;;13.10;5.70;;;;;;;28.37;51.45;99193.52;1680120;85;21139;-77
2021/06/27 10:59:51;;;;;;;6.97;5.10;;;;;;;28.45;50.99;99185.48;1679681;85;21293;-80
2021/06/27 11:02:39;;;;;;;8.00;5.22;;;;;;;28.47;51.04;99195.59;1673791;85;21166;-79
2021/06/27 11:05:35;;;;;;;6.55;5.62;;;;;;;28.53;51.11;99178.06;1677257;85;21000;-78
2021/06/27 11:08:04;;;;;;;8.83;6.12;;;;;;;28.60;50.57;99176.14;1671782;85;21548;-81
2021/06/27 11:10:36;;;;;;;8.45;5.33;;;;;;;28.50;50.77;99180.98;1679650;85;21546;-79
2021/06/27 11:13:10;;;;;;;5.15;4.55;;;;;;;28.42;51.33;99180.73;1668777;85;21078;-79
2021/06/27 11:15:41;;;;;;;6.65;5.65;;;;;;;28.51;51.50;99176.25;1665765;86;21146;-81
2021/06/27 11:18:10;;;;;;;8.43;5.57;;;;;;;28.58;50.85;99199.23;1662490;86;21046;-79
2021/06/27 11:20:57;;;;;;;6.30;5.70;;;;;;;28.58;50.85;99199.23;1676855;85;21445;-79
2021/06/27 11:23:57;;;;;;;7.40;5.58;;;;;;;28.57;50.58;99185.80;1679894;85;21031;-77
2021/06/27 11:26:48;;;;;;;6.28;4.25;;;;;;;28.59;50.60;99200.83;1679997;85;21612;-80
2021/06/27 11:29:27;;;;;;;7.12;5.75;;;;;;;28.60;50.28;99183.06;1675371;85;21209;-78
2021/06/27 11:32:05;;;;;;;5.67;5.12;;;;;;;28.53;50.52;99176.09;1667882;85;21584;-79
2021/06/27 11:34:32;;;;;;;7.30;6.15;;;;;;;28.50;51.30;99180.98;1663618;86;21111;-90
2021/06/27 11:37:23;;;;;;;6.83;6.12;;;;;;;28.57;51.31;99180.27;1649167;86;27803;-78
2021/06/27 11:40:03;;;;;;;5.70;5.20;;;;;;;28.60;50.99;99194.13;1617116;88;21099;-79
2021/06/27 11:42:32;;;;;;;7.15;5.22;;;;;;;28.59;51.30;99179.28;1616501;88;21988;-81
2021/06/27 11:45:16;;;;;;;10.40;6.12;;;;;;;28.49;51.81;99171.70;1641936;87;21110;-77
2021/06/27 11:47:53;;;;;;;5.42;5.03;;;;;;;28.48;51.84;99175.64;1641922;87;21079;-84